createdAt,value
2022-08-16T00:01:52.736Z,15.09
2022-08-16T00:06:57.188Z,14.98
2022-08-16T00:12:02.863Z,15.13
2022-08-16T00:17:18.498Z,15.36
2022-08-16T00:22:25.110Z,15.61
2022-08-16T00:27:30.983Z,15.48
2022-08-16T00:32:35.067Z,15.30
2022-08-16T00:37:58.680Z,15.08
2022-08-16T00:43:12.138Z,14.86
2022-08-16T00:48:31.105Z,14.71
2022-08-16T00:53:36.491Z,14.71
2022-08-16T00:58:47.311Z,14.79
2022-08-16T01:03:55.052Z,14.97
2022-08-16T01:09:00.467Z,14.68
2022-08-16T01:14:11.417Z,14.64
2022-08-16T01:19:23.572Z,14.71
2022-08-16T01:24:53.456Z,14.78
2022-08-16T01:30:01.799Z,14.80
2022-08-16T01:35:17.488Z,14.76
2022-08-16T01:40:31.305Z,14.66
2022-08-16T01:45:40.946Z,14.55
2022-08-16T01:51:09.281Z,14.45
2022-08-16T01:56:24.390Z,14.31
2022-08-16T02:01:31.763Z,14.40
2022-08-16T02:06:38.584Z,14.37
2022-08-16T02:11:53.257Z,14.37
2022-08-16T02:17:01.580Z,14.35
2022-08-16T02:22:35.765Z,14.28
2022-08-16T02:27:36.980Z,14.22
2022-08-16T02:33:02.405Z,14.11
2022-08-16T02:38:08.662Z,14.30
2022-08-16T02:43:15.508Z,14.13
2022-08-16T02:48:29.692Z,14.21
2022-08-16T02:53:43.181Z,14.18
2022-08-16T02:58:52.199Z,14.10
2022-08-16T03:04:28.909Z,14.12
2022-08-16T03:09:24.324Z,14.00
2022-08-16T03:14:33.244Z,14.13
2022-08-16T03:19:47.347Z,14.32
2022-08-16T03:24:59.006Z,14.34
2022-08-16T03:30:17.412Z,14.36
2022-08-16T03:35:32.647Z,14.50
2022-08-16T03:40:39.003Z,14.51
2022-08-16T03:45:45.339Z,14.34
2022-08-16T03:51:00.208Z,14.23
2022-08-16T03:56:07.956Z,14.23
2022-08-16T04:01:29.337Z,14.24
2022-08-16T04:06:34.422Z,14.33
2022-08-16T04:11:38.763Z,14.61
2022-08-16T04:16:44.296Z,14.96
2022-08-16T04:22:08.856Z,15.15
2022-08-16T04:27:24.607Z,15.52
2022-08-16T04:32:36.178Z,15.93
2022-08-16T04:37:42.532Z,16.12
2022-08-16T04:43:00.738Z,16.03
2022-08-16T04:48:09.273Z,16.28
2022-08-16T04:53:24.660Z,16.56
2022-08-16T04:58:43.979Z,16.94
2022-08-16T05:04:01.146Z,17.08
2022-08-16T05:09:19.323Z,17.19
2022-08-16T05:14:45.281Z,17.21
2022-08-16T05:19:58.304Z,17.32
2022-08-16T05:25:10.456Z,16.99
2022-08-16T05:30:36.751Z,16.90
2022-08-16T05:35:55.051Z,17.83
2022-08-16T05:41:20.038Z,18.60
2022-08-16T05:46:30.141Z,19.24
2022-08-16T05:51:46.051Z,19.51
2022-08-16T05:56:56.413Z,18.90
2022-08-16T06:02:01.172Z,18.36
2022-08-16T06:07:26.254Z,18.45
2022-08-16T06:12:55.352Z,18.75
2022-08-16T06:18:00.417Z,19.04
2022-08-16T06:23:11.705Z,19.09
2022-08-16T06:28:37.755Z,19.17
2022-08-16T06:33:48.763Z,18.97
2022-08-16T06:38:59.264Z,20.07
2022-08-16T06:44:20.692Z,21.04
2022-08-16T06:49:30.110Z,21.75
2022-08-16T06:54:38.228Z,22.39
2022-08-16T06:59:48.663Z,22.38
2022-08-16T07:04:59.791Z,22.70
2022-08-16T07:10:09.017Z,22.81
2022-08-16T07:15:18.775Z,23.14
2022-08-16T07:20:35.277Z,23.23
2022-08-16T07:25:51.224Z,23.49
2022-08-16T07:30:59.982Z,24.23
2022-08-16T07:36:11.423Z,23.98
2022-08-16T07:41:22.801Z,24.77
2022-08-16T07:46:36.915Z,24.25
2022-08-16T07:51:56.133Z,25.26
2022-08-16T07:57:06.226Z,25.34
2022-08-16T08:02:19.672Z,25.59
2022-08-16T08:07:28.334Z,25.99
2022-08-16T08:12:36.275Z,25.94
2022-08-16T08:17:44.910Z,25.92
2022-08-16T08:23:00.573Z,25.92
2022-08-16T08:28:11.120Z,27.66
2022-08-16T08:33:18.110Z,27.54
2022-08-16T08:38:43.831Z,27.69
2022-08-16T08:43:51.594Z,27.89
2022-08-16T08:49:02.173Z,29.06
2022-08-16T08:54:20.502Z,28.89
2022-08-16T08:59:32.003Z,29.16
2022-08-16T09:04:36.314Z,29.31
2022-08-16T09:09:43.350Z,29.13
2022-08-16T09:14:51.449Z,29.29
2022-08-16T09:20:04.701Z,29.46
2022-08-16T09:25:12.971Z,29.07
2022-08-16T09:30:34.386Z,29.96
2022-08-16T09:35:44.730Z,29.98
2022-08-16T09:40:49.259Z,29.98
2022-08-16T09:45:54.795Z,30.35
2022-08-16T09:50:58.748Z,30.86
2022-08-16T09:56:04.850Z,30.45
2022-08-16T10:01:16.979Z,28.74
2022-08-16T10:06:23.395Z,27.68
2022-08-16T10:11:50.462Z,27.33
2022-08-16T10:17:00.125Z,26.53
2022-08-16T10:22:06.945Z,27.04
2022-08-16T10:27:25.456Z,27.23
2022-08-16T10:32:33.627Z,26.57
2022-08-16T10:37:38.990Z,26.42
2022-08-16T10:42:42.994Z,26.34
2022-08-16T10:48:00.779Z,26.21
2022-08-16T10:53:07.751Z,26.14
2022-08-16T10:58:17.001Z,26.33
2022-08-16T11:03:42.944Z,27.37
2022-08-16T11:08:46.771Z,29.59
2022-08-16T11:14:06.043Z,30.61
2022-08-16T11:19:19.158Z,28.43
2022-08-16T11:24:42.544Z,27.39
2022-08-16T11:29:47.803Z,29.22
2022-08-16T11:35:11.063Z,30.53
2022-08-16T11:40:19.518Z,31.69
2022-08-16T11:45:23.697Z,31.43
2022-08-16T11:50:33.454Z,31.35
2022-08-16T11:55:39.577Z,30.92
2022-08-16T12:00:51.206Z,29.27
2022-08-16T12:05:58.257Z,29.09
2022-08-16T12:11:02.774Z,29.40
2022-08-16T12:16:09.196Z,29.01
2022-08-16T12:21:14.831Z,27.98
2022-08-16T12:26:18.803Z,27.36
2022-08-16T12:31:24.204Z,27.31
2022-08-16T12:36:30.203Z,27.85
2022-08-16T12:41:34.878Z,29.46
2022-08-16T12:46:39.112Z,29.97
2022-08-16T12:51:59.825Z,30.12
2022-08-16T12:57:04.272Z,30.57
2022-08-16T13:02:08.444Z,29.52
2022-08-16T13:07:18.438Z,29.75
2022-08-16T13:12:31.530Z,28.87
2022-08-16T13:17:36.453Z,28.13
2022-08-16T13:22:52.166Z,29.44
2022-08-16T13:28:02.746Z,29.97
2022-08-16T13:33:12.624Z,30.28
2022-08-16T13:38:24.383Z,30.29
2022-08-16T13:43:32.345Z,29.18
2022-08-16T13:48:44.292Z,29.60
2022-08-16T13:53:59.852Z,29.55
2022-08-16T13:59:19.133Z,28.57
2022-08-16T14:04:27.587Z,28.04
2022-08-16T14:09:34.491Z,28.16
2022-08-16T14:14:38.492Z,28.01
2022-08-16T14:19:44.896Z,27.91
2022-08-16T14:24:53.456Z,28.28
2022-08-16T14:29:59.189Z,28.59
2022-08-16T14:35:09.973Z,28.77
2022-08-16T14:40:18.785Z,28.44
2022-08-16T14:45:25.832Z,28.60
2022-08-16T14:50:31.328Z,28.20
2022-08-16T14:55:38.161Z,28.79
2022-08-16T15:00:45.161Z,28.81
2022-08-16T15:05:49.941Z,28.50
2022-08-16T15:11:02.955Z,28.63
2022-08-16T15:16:07.377Z,28.31
2022-08-16T15:21:14.745Z,27.69
2022-08-16T15:26:29.718Z,27.31
2022-08-16T15:31:41.595Z,27.18
2022-08-16T15:36:47.168Z,27.31
2022-08-16T15:42:06.749Z,27.57
2022-08-16T15:47:16.829Z,27.26
2022-08-16T15:52:29.185Z,27.11
2022-08-16T15:57:41.377Z,27.04
2022-08-16T16:02:46.838Z,26.91
2022-08-16T16:07:56.737Z,26.66
2022-08-16T16:13:16.820Z,26.56
2022-08-16T16:18:22.220Z,26.28
2022-08-16T16:23:29.373Z,26.07
2022-08-16T16:29:05.447Z,25.71
2022-08-16T16:34:01.043Z,25.39
2022-08-16T16:39:09.047Z,24.86
2022-08-16T16:44:18.120Z,24.33
2022-08-16T16:49:41.600Z,24.08
2022-08-16T16:54:47.028Z,23.50
2022-08-16T16:59:56.520Z,23.07
2022-08-16T17:05:00.858Z,22.73
2022-08-16T17:10:06.573Z,22.30
2022-08-16T17:15:13.264Z,21.97
2022-08-16T17:20:19.120Z,21.93
2022-08-16T17:25:24.521Z,21.63
2022-08-16T17:30:45.231Z,21.44
2022-08-16T17:35:55.231Z,21.37
2022-08-16T17:41:00.572Z,21.33
2022-08-16T17:46:41.738Z,21.28
2022-08-16T17:51:34.460Z,21.16
2022-08-16T17:56:38.599Z,21.17
2022-08-16T18:01:44.137Z,21.11
2022-08-16T18:06:49.214Z,21.07
2022-08-16T18:11:54.970Z,21.16
2022-08-16T18:17:00.532Z,21.16
2022-08-16T18:22:20.475Z,21.19
2022-08-16T18:27:26.343Z,21.25
2022-08-16T18:32:32.794Z,21.50
2022-08-16T18:37:36.843Z,21.48
2022-08-16T18:42:40.862Z,21.41
2022-08-16T18:47:46.634Z,21.24
2022-08-16T18:52:52.924Z,21.49
2022-08-16T18:57:57.357Z,21.28
2022-08-16T19:03:10.012Z,21.19
2022-08-16T19:08:16.044Z,21.15
2022-08-16T19:13:22.520Z,21.05
2022-08-16T19:18:30.480Z,20.79
2022-08-16T19:23:44.849Z,20.78
2022-08-16T19:28:59.532Z,20.40
2022-08-16T19:34:08.962Z,19.96
2022-08-16T19:39:15.515Z,19.98
2022-08-16T19:44:23.344Z,19.68
2022-08-16T19:49:31.157Z,19.99
2022-08-16T19:54:38.963Z,19.59
2022-08-16T19:59:45.904Z,19.42
2022-08-16T20:04:54.241Z,19.32
2022-08-16T20:09:58.784Z,19.23
2022-08-16T20:15:03.275Z,19.12
2022-08-16T20:20:09.488Z,19.16
2022-08-16T20:25:18.633Z,19.04
2022-08-16T20:30:23.384Z,18.94
2022-08-16T20:35:29.850Z,18.87
2022-08-16T20:40:35.799Z,18.84
2022-08-16T20:45:41.896Z,19.16
2022-08-16T20:50:47.574Z,19.13
2022-08-16T20:55:51.684Z,19.07
2022-08-16T21:00:56.268Z,18.77
2022-08-16T21:06:03.640Z,18.48
2022-08-16T21:11:08.691Z,18.25
2022-08-16T21:16:14.015Z,18.23
2022-08-16T21:21:20.083Z,18.45
2022-08-16T21:26:27.244Z,18.32
2022-08-16T21:31:33.609Z,18.68
2022-08-16T21:36:39.358Z,18.90
2022-08-16T21:41:43.847Z,18.90
2022-08-16T21:46:51.141Z,18.78
2022-08-16T21:51:57.369Z,18.52
2022-08-16T21:57:01.755Z,18.33
2022-08-16T22:02:38.629Z,18.28
2022-08-16T22:07:48.116Z,18.24
2022-08-16T22:12:52.695Z,18.06
2022-08-16T22:17:58.919Z,17.92
2022-08-16T22:23:09.881Z,17.95
2022-08-16T22:28:15.214Z,17.73
2022-08-16T22:33:21.886Z,17.55
2022-08-16T22:38:55.124Z,17.48
2022-08-16T22:43:56.465Z,17.33
2022-08-16T22:49:00.524Z,17.20
2022-08-16T22:54:48.161Z,17.04
2022-08-16T22:59:32.164Z,16.80
2022-08-16T23:04:39.415Z,16.74
2022-08-16T23:09:44.563Z,16.63
2022-08-16T23:14:49.072Z,16.59
2022-08-16T23:19:57.958Z,16.48
2022-08-16T23:25:03.402Z,16.36
2022-08-16T23:30:08.787Z,16.32
2022-08-16T23:35:13.655Z,16.19
2022-08-16T23:40:20.390Z,15.96
2022-08-16T23:45:27.067Z,16.00
2022-08-16T23:50:32.520Z,15.96
2022-08-16T23:55:42.167Z,15.90
